createdAt,value
2023-05-05T04:00:27.552Z,7.60
2023-05-05T04:02:59.277Z,6.45
2023-05-05T04:05:30.987Z,13.38
2023-05-05T04:08:02.755Z,9.52
2023-05-05T04:10:34.436Z,8.93
2023-05-05T04:13:06.134Z,9.00
2023-05-05T04:15:43.680Z,7.63
2023-05-05T04:18:15.354Z,8.27
2023-05-05T04:20:47.152Z,8.15
2023-05-05T04:23:18.796Z,7.13
2023-05-05T04:25:50.476Z,5.97
2023-05-05T04:28:22.284Z,11.55
2023-05-05T04:30:55.349Z,8.60
2023-05-05T04:33:27.011Z,10.07
2023-05-05T04:35:58.649Z,6.38
2023-05-05T04:38:30.340Z,9.50
2023-05-05T04:41:04.695Z,7.20
2023-05-05T04:43:36.397Z,9.07
2023-05-05T04:46:09.436Z,8.40
2023-05-05T04:48:41.106Z,6.97
2023-05-05T04:51:12.789Z,12.63
2023-05-05T04:53:44.431Z,6.72
2023-05-05T04:56:16.134Z,12.27
2023-05-05T04:58:47.783Z,8.38
2023-05-05T05:01:20.834Z,9.80
2023-05-05T05:03:53.058Z,11.35
2023-05-05T05:06:24.763Z,10.75
2023-05-05T05:08:56.443Z,7.15
2023-05-05T05:11:28.087Z,5.82
2023-05-05T05:13:59.791Z,9.10
2023-05-05T05:16:32.838Z,7.15
2023-05-05T05:19:04.506Z,11.65
2023-05-05T05:21:36.229Z,7.45
2023-05-05T05:24:08.003Z,7.07
2023-05-05T05:26:39.667Z,6.50
2023-05-05T05:29:11.292Z,7.25
2023-05-05T05:31:44.365Z,9.20
2023-05-05T05:34:16.090Z,7.15
2023-05-05T05:36:47.739Z,8.52
2023-05-05T05:39:19.364Z,10.45
2023-05-05T05:41:51.018Z,8.30
2023-05-05T05:44:22.723Z,12.30
2023-05-05T05:46:55.861Z,9.98
2023-05-05T05:49:27.505Z,7.78
2023-05-05T05:51:59.148Z,10.15
2023-05-05T05:54:30.763Z,10.57
2023-05-05T05:57:02.423Z,11.98
2023-05-05T05:59:34.042Z,11.73
2023-05-05T06:02:07.090Z,9.55
2023-05-05T06:04:41.651Z,13.93
2023-05-05T06:07:13.770Z,9.57
2023-05-05T06:09:45.546Z,12.93
2023-05-05T06:12:17.193Z,6.35
2023-05-05T06:14:48.874Z,11.63
2023-05-05T06:17:22.293Z,6.72
2023-05-05T06:19:54.610Z,9.52
2023-05-05T06:22:26.318Z,10.60
2023-05-05T06:24:58.321Z,10.50
2023-05-05T06:27:30.368Z,6.28
2023-05-05T06:30:01.995Z,7.97
2023-05-05T06:32:35.036Z,9.23
2023-05-05T06:35:07.706Z,12.18
2023-05-05T06:37:39.747Z,11.73
2023-05-05T06:40:12.231Z,7.75
2023-05-05T06:42:44.272Z,9.77
2023-05-05T06:45:16.025Z,7.93
2023-05-05T06:47:49.095Z,10.07
2023-05-05T06:50:20.738Z,11.30
2023-05-05T06:52:52.390Z,11.80
2023-05-05T06:55:24.457Z,8.38
2023-05-05T06:57:56.119Z,9.93
2023-05-05T07:00:27.791Z,10.07
2023-05-05T07:03:00.837Z,9.82
2023-05-05T07:05:32.759Z,10.75
2023-05-05T07:08:04.437Z,7.63
2023-05-05T07:10:36.095Z,9.65
2023-05-05T07:13:07.794Z,6.93
2023-05-05T07:15:41.496Z,11.63
2023-05-05T07:18:14.656Z,9.32
2023-05-05T07:20:46.342Z,7.45
2023-05-05T07:23:17.988Z,11.48
2023-05-05T07:25:49.668Z,9.30
2023-05-05T07:28:21.298Z,9.15
2023-05-05T07:30:52.942Z,6.97
2023-05-05T07:33:25.980Z,10.68
2023-05-05T07:35:57.621Z,7.63
2023-05-05T07:38:29.246Z,6.28
2023-05-05T07:41:00.900Z,11.70
2023-05-05T07:43:32.602Z,7.97
2023-05-05T07:46:04.364Z,10.55
2023-05-05T07:48:37.622Z,13.77
2023-05-05T07:51:09.366Z,12.38
2023-05-05T07:53:41.088Z,10.60
2023-05-05T07:56:12.770Z,8.30
2023-05-05T07:58:44.397Z,12.38
2023-05-05T08:01:16.044Z,6.30
2023-05-05T08:03:49.076Z,7.85
2023-05-05T08:06:20.786Z,8.35
2023-05-05T08:08:52.484Z,9.85
2023-05-05T08:11:24.143Z,7.85
2023-05-05T08:13:55.781Z,6.68
2023-05-05T08:16:27.565Z,7.13
2023-05-05T08:19:00.611Z,7.90
2023-05-05T08:21:32.289Z,8.27
2023-05-05T08:24:04.199Z,8.30
2023-05-05T08:26:35.859Z,9.57
2023-05-05T08:29:07.489Z,5.97
2023-05-05T08:31:39.261Z,14.60
2023-05-05T08:34:12.270Z,8.63
2023-05-05T08:36:43.923Z,10.95
2023-05-05T08:39:15.555Z,6.05
2023-05-05T08:41:47.284Z,9.98
2023-05-05T08:44:18.906Z,8.10
2023-05-05T08:46:50.629Z,7.85
2023-05-05T08:49:23.637Z,6.53
2023-05-05T08:51:55.291Z,6.13
2023-05-05T08:54:27.168Z,24.45
2023-05-05T08:56:59.104Z,12.68
2023-05-05T08:59:30.745Z,6.72
2023-05-05T09:02:02.402Z,6.40
2023-05-05T09:04:35.965Z,10.82
2023-05-05T09:07:07.770Z,9.77
2023-05-05T09:09:39.417Z,10.48
2023-05-05T09:12:11.056Z,11.95
2023-05-05T09:14:42.700Z,25.50
2023-05-05T09:17:23.522Z,9.15
2023-05-05T09:20:04.186Z,11.13
2023-05-05T09:22:36.510Z,11.45
2023-05-05T09:25:10.052Z,10.10
2023-05-05T09:27:42.749Z,12.50
2023-05-05T09:30:15.601Z,11.98
2023-05-05T09:32:47.898Z,28.48
2023-05-05T09:35:21.484Z,12.68
2023-05-05T09:37:53.124Z,17.67
2023-05-05T09:40:24.780Z,21.00
2023-05-05T09:43:00.970Z,10.38
2023-05-05T09:45:32.756Z,16.75
2023-05-05T09:48:05.072Z,13.05
2023-05-05T09:50:43.986Z,11.38
2023-05-05T09:53:15.651Z,12.70
2023-05-05T09:55:56.358Z,9.95
2023-05-05T09:58:28.684Z,10.98
2023-05-05T10:01:00.534Z,9.23
2023-05-05T10:03:32.195Z,9.25
2023-05-05T10:06:05.508Z,8.25
2023-05-05T10:08:37.171Z,6.35
2023-05-05T10:11:08.833Z,7.63
2023-05-05T10:13:40.661Z,7.35
2023-05-05T10:16:12.410Z,6.68
2023-05-05T10:18:44.101Z,8.77
2023-05-05T10:21:17.924Z,9.32
2023-05-05T10:23:52.657Z,10.30
2023-05-05T10:26:24.392Z,10.07
2023-05-05T10:28:56.479Z,7.82
2023-05-05T10:31:29.691Z,7.55
2023-05-05T10:34:03.353Z,6.80
2023-05-05T10:36:37.030Z,8.23
2023-05-05T10:39:08.726Z,8.45
2023-05-05T10:41:40.441Z,11.80
2023-05-05T10:44:12.140Z,9.43
2023-05-05T10:46:43.959Z,9.98
2023-05-05T10:49:19.402Z,8.18
2023-05-05T10:51:54.673Z,7.18
2023-05-05T10:54:30.294Z,13.10
2023-05-05T10:57:02.131Z,8.02
2023-05-05T10:59:40.838Z,10.68
2023-05-05T11:02:22.508Z,10.80
2023-05-05T11:05:04.519Z,7.90
2023-05-05T11:07:37.634Z,10.05
2023-05-05T11:10:10.251Z,13.85
2023-05-05T11:13:19.037Z,7.57
2023-05-05T11:15:51.672Z,9.20
2023-05-05T11:18:30.767Z,7.50
2023-05-05T11:21:07.151Z,7.45
2023-05-05T11:23:40.250Z,8.18
2023-05-05T11:26:12.103Z,5.72
2023-05-05T11:29:00.530Z,5.28
2023-05-05T11:31:32.479Z,4.50
2023-05-05T11:34:23.446Z,5.85
2023-05-05T11:36:57.528Z,5.97
2023-05-05T11:39:35.368Z,6.63
2023-05-05T11:42:22.720Z,3.58
2023-05-05T11:44:54.490Z,4.75
2023-05-05T11:47:32.543Z,4.90
2023-05-05T11:50:17.851Z,6.65
2023-05-05T11:52:49.543Z,5.25
2023-05-05T11:55:22.862Z,4.72
2023-05-05T11:57:54.592Z,4.43
2023-05-05T12:00:32.796Z,3.47
2023-05-05T12:03:04.642Z,5.28
2023-05-05T12:05:37.062Z,7.07
2023-05-05T12:08:08.864Z,4.00
2023-05-05T12:10:42.001Z,2.83
2023-05-05T12:13:20.006Z,5.60
2023-05-05T12:15:51.981Z,5.32
2023-05-05T12:18:23.758Z,3.80
2023-05-05T12:20:55.425Z,6.97
2023-05-05T12:23:27.161Z,5.75
2023-05-05T12:26:00.237Z,3.13
2023-05-05T12:28:43.457Z,6.13
2023-05-05T12:31:15.475Z,6.53
2023-05-05T12:33:47.510Z,4.65
2023-05-05T12:36:19.261Z,4.90
2023-05-05T12:38:50.998Z,4.93
2023-05-05T12:41:24.130Z,4.85
2023-05-05T12:43:55.934Z,5.78
2023-05-05T12:46:27.892Z,4.05
2023-05-05T12:49:00.134Z,3.58
2023-05-05T12:51:31.902Z,4.50
2023-05-05T12:54:04.941Z,3.05
2023-05-05T12:56:39.702Z,3.28
2023-05-05T12:59:11.944Z,3.25
2023-05-05T13:01:50.631Z,5.22
2023-05-05T13:04:23.172Z,6.10
2023-05-05T13:07:10.278Z,4.45
2023-05-05T13:09:42.514Z,5.45
2023-05-05T13:12:17.402Z,3.58
2023-05-05T13:14:49.128Z,6.28
2023-05-05T13:17:20.900Z,6.78
2023-05-05T13:19:52.719Z,7.45
2023-05-05T13:22:24.443Z,7.15
2023-05-05T13:24:56.216Z,5.40
2023-05-05T13:27:29.322Z,4.47
2023-05-05T13:30:00.997Z,6.43
2023-05-05T13:32:32.760Z,5.68
2023-05-05T13:35:05.195Z,8.55
2023-05-05T13:37:37.016Z,6.35
2023-05-05T13:40:10.162Z,6.32
2023-05-05T13:42:43.286Z,8.63
2023-05-05T13:45:15.086Z,5.53
2023-05-05T13:47:46.835Z,6.65
2023-05-05T13:50:18.595Z,6.30
2023-05-05T13:52:50.276Z,9.75
2023-05-05T13:55:21.955Z,6.65
2023-05-05T13:57:55.069Z,5.85
2023-05-05T14:00:26.743Z,5.85
2023-05-05T14:02:58.482Z,5.55
2023-05-05T14:05:30.154Z,6.32
2023-05-05T14:08:01.855Z,7.30
2023-05-05T14:10:33.552Z,6.13
2023-05-05T14:13:06.613Z,7.22
2023-05-05T14:15:38.326Z,7.35
2023-05-05T14:18:10.079Z,12.25
2023-05-05T14:20:41.823Z,5.53
2023-05-05T14:23:13.583Z,5.82
2023-05-05T14:25:45.293Z,6.53
2023-05-05T14:28:18.440Z,4.55
2023-05-05T14:30:50.177Z,5.45
2023-05-05T14:33:21.834Z,3.03
2023-05-05T14:35:53.593Z,7.13
2023-05-05T14:38:25.407Z,4.80
2023-05-05T14:40:57.186Z,4.18
2023-05-05T14:43:30.220Z,19.42
2023-05-05T14:46:01.944Z,16.73
2023-05-05T14:48:33.664Z,7.00
2023-05-05T14:51:05.429Z,8.32
2023-05-05T14:53:37.175Z,13.07
2023-05-05T14:56:08.866Z,10.07
2023-05-05T14:58:41.933Z,9.20
2023-05-05T15:01:13.601Z,7.20
2023-05-05T15:03:45.397Z,2.83
2023-05-05T15:06:17.166Z,4.75
2023-05-05T15:08:48.904Z,4.15
2023-05-05T15:11:20.582Z,1.80
2023-05-05T15:13:53.583Z,2.85
2023-05-05T15:16:25.259Z,2.58
2023-05-05T15:18:56.984Z,4.75
2023-05-05T15:21:28.678Z,3.40
2023-05-05T15:24:00.330Z,4.53
2023-05-05T15:26:31.979Z,3.50
2023-05-05T15:29:05.048Z,3.63
2023-05-05T15:31:37.880Z,3.05
2023-05-05T15:34:09.561Z,2.63
2023-05-05T15:36:41.255Z,4.28
2023-05-05T15:39:12.913Z,2.10
2023-05-05T15:41:44.588Z,4.05
2023-05-05T15:44:17.602Z,5.82
2023-05-05T15:46:50.475Z,2.05
2023-05-05T15:49:22.379Z,5.57
2023-05-05T15:51:54.115Z,5.28
2023-05-05T15:54:27.025Z,5.05
2023-05-05T15:56:58.698Z,5.00
2023-05-05T15:59:31.726Z,4.80
2023-05-05T16:02:03.458Z,5.10
2023-05-05T16:04:35.212Z,7.25
2023-05-05T16:07:06.952Z,5.63
2023-05-05T16:09:38.749Z,8.45
2023-05-05T16:12:10.455Z,6.20
2023-05-05T16:14:43.464Z,3.80
2023-05-05T16:17:15.120Z,7.70
2023-05-05T16:19:46.845Z,6.85
2023-05-05T16:22:18.506Z,2.85
2023-05-05T16:24:50.158Z,4.28
2023-05-05T16:27:21.920Z,5.90
2023-05-05T16:29:54.922Z,2.50
2023-05-05T16:32:26.589Z,5.47
2023-05-05T16:34:58.292Z,4.60
2023-05-05T16:37:29.989Z,4.10
2023-05-05T16:40:01.732Z,3.45
2023-05-05T16:42:33.597Z,4.63
2023-05-05T16:45:08.405Z,6.05
2023-05-05T16:47:40.425Z,9.38
2023-05-05T16:50:12.138Z,5.50
2023-05-05T16:52:43.792Z,7.38
2023-05-05T16:55:15.483Z,6.82
2023-05-05T16:57:47.117Z,6.25
2023-05-05T17:00:20.380Z,3.92
2023-05-05T17:02:52.405Z,2.40
2023-05-05T17:05:24.106Z,3.75
2023-05-05T17:07:55.770Z,4.10
2023-05-05T17:10:27.498Z,2.85
2023-05-05T17:12:59.280Z,3.22
2023-05-05T17:15:32.394Z,3.67
2023-05-05T17:18:04.555Z,2.97
2023-05-05T17:20:36.302Z,4.70
2023-05-05T17:23:07.986Z,3.85
2023-05-05T17:25:39.710Z,4.43
2023-05-05T17:28:11.372Z,8.70
2023-05-05T17:30:44.549Z,9.50
2023-05-05T17:33:16.213Z,5.10
2023-05-05T17:35:47.918Z,8.00
2023-05-05T17:38:19.597Z,8.13
2023-05-05T17:40:51.236Z,7.45
2023-05-05T17:43:23.056Z,8.35
2023-05-05T17:45:56.180Z,7.30
2023-05-05T17:48:27.875Z,7.35
2023-05-05T17:50:59.553Z,7.50
2023-05-05T17:53:31.240Z,10.35
2023-05-05T17:56:02.942Z,11.02
2023-05-05T17:58:34.623Z,12.20
2023-05-05T18:01:07.715Z,11.30
2023-05-05T18:03:40.863Z,11.23
2023-05-05T18:06:12.840Z,11.88
2023-05-05T18:08:44.786Z,15.07
2023-05-05T18:11:16.462Z,10.57
2023-05-05T18:13:48.149Z,14.23
2023-05-05T18:16:21.223Z,15.02
2023-05-05T18:18:53.780Z,15.43
2023-05-05T18:21:25.526Z,16.25
2023-05-05T18:24:04.612Z,16.30
2023-05-05T18:26:43.518Z,38.33
2023-05-05T18:29:15.209Z,23.70
2023-05-05T18:31:50.610Z,17.05
2023-05-05T18:34:22.301Z,15.73
2023-05-05T18:36:54.402Z,14.07
2023-05-05T18:39:26.128Z,15.65
2023-05-05T18:41:57.811Z,13.13
2023-05-05T18:44:29.484Z,20.30
2023-05-05T18:47:02.523Z,10.55
2023-05-05T18:49:34.269Z,11.73
2023-05-05T18:52:05.937Z,47.97
2023-05-05T18:54:37.945Z,55.92
2023-05-05T18:57:09.791Z,12.73
2023-05-05T18:59:41.476Z,11.10
2023-05-05T19:02:14.478Z,10.52
2023-05-05T19:04:46.176Z,12.05
2023-05-05T19:07:31.391Z,15.02
2023-05-05T19:10:06.894Z,14.68
2023-05-05T19:12:38.805Z,14.30
2023-05-05T19:15:11.093Z,14.20
2023-05-05T19:17:44.367Z,14.30
2023-05-05T19:20:16.134Z,13.75
2023-05-05T19:22:47.811Z,12.00
2023-05-05T19:25:19.615Z,12.15
2023-05-05T19:27:51.252Z,13.65
2023-05-05T19:30:22.960Z,11.75
2023-05-05T19:32:55.999Z,11.77
2023-05-05T19:35:27.686Z,12.88
2023-05-05T19:37:59.726Z,14.80
2023-05-05T19:40:31.404Z,14.50
2023-05-05T19:43:03.109Z,13.55
2023-05-05T19:45:34.938Z,12.75
2023-05-05T19:48:08.052Z,15.32
2023-05-05T19:50:39.728Z,15.23
2023-05-05T19:53:11.643Z,15.80
2023-05-05T19:55:43.337Z,18.77
2023-05-05T19:58:15.030Z,16.80
2023-05-05T20:00:46.679Z,16.02
2023-05-05T20:03:19.764Z,17.25
2023-05-05T20:05:51.476Z,16.00
2023-05-05T20:08:23.175Z,18.10
2023-05-05T20:10:54.951Z,14.65
2023-05-05T20:13:26.673Z,14.60
2023-05-05T20:15:58.387Z,14.27
2023-05-05T20:18:31.483Z,15.70
2023-05-05T20:21:03.289Z,16.25
2023-05-05T20:23:35.994Z,13.52
2023-05-05T20:26:07.690Z,14.50
2023-05-05T20:28:40.809Z,17.65
2023-05-05T20:31:14.025Z,18.55
2023-05-05T20:33:47.064Z,15.48
2023-05-05T20:36:18.819Z,16.33
2023-05-05T20:38:50.482Z,15.82
2023-05-05T20:41:22.205Z,16.10
2023-05-05T20:43:53.852Z,18.85
2023-05-05T20:46:25.659Z,19.90
2023-05-05T20:48:58.806Z,22.50
2023-05-05T20:51:30.534Z,25.55
2023-05-05T20:54:02.594Z,26.35
2023-05-05T20:56:34.271Z,22.73
2023-05-05T20:59:05.941Z,22.48
2023-05-05T21:01:37.629Z,30.33
2023-05-05T21:04:10.716Z,29.08
2023-05-05T21:06:42.376Z,26.10
2023-05-05T21:09:14.053Z,26.35
2023-05-05T21:11:45.762Z,26.50
2023-05-05T21:14:17.496Z,25.95
2023-05-05T21:16:49.283Z,23.85
2023-05-05T21:19:22.367Z,29.10
2023-05-05T21:21:54.082Z,29.23
2023-05-05T21:24:25.924Z,26.75
2023-05-05T21:26:57.673Z,29.08
2023-05-05T21:29:29.402Z,35.55
2023-05-05T21:32:01.265Z,28.60
2023-05-05T21:34:34.329Z,31.02
2023-05-05T21:37:06.076Z,31.52
2023-05-05T21:39:37.823Z,31.15
2023-05-05T21:42:09.558Z,32.33
2023-05-05T21:44:41.295Z,31.52
2023-05-05T21:47:12.992Z,35.20
2023-05-05T21:49:46.083Z,30.35
2023-05-05T21:52:17.724Z,30.35
2023-05-05T21:54:49.547Z,32.50
2023-05-05T21:57:21.199Z,30.65
2023-05-05T21:59:52.910Z,28.90
